createdAt,value
2018-07-22T00:02:21.255Z,12.63
2018-07-22T00:04:48.608Z,11.43
2018-07-22T00:07:15.960Z,11.53
2018-07-22T00:09:43.276Z,11.10
2018-07-22T00:12:10.611Z,11.43
2018-07-22T00:14:37.918Z,11.83
2018-07-22T00:17:05.280Z,10.73
2018-07-22T00:19:32.621Z,11.40
2018-07-22T00:21:59.962Z,12.60
2018-07-22T00:24:27.273Z,12.60
2018-07-22T00:26:54.660Z,12.27
2018-07-22T00:29:22.024Z,13.73
2018-07-22T00:31:49.371Z,11.70
2018-07-22T00:34:16.733Z,11.10
2018-07-22T00:36:44.076Z,10.97
2018-07-22T00:39:11.428Z,11.07
2018-07-22T00:41:38.738Z,12.10
2018-07-22T00:44:06.080Z,12.53
2018-07-22T00:46:33.399Z,13.20
2018-07-22T00:49:00.716Z,12.00
2018-07-22T00:51:28.039Z,11.53
2018-07-22T00:53:55.404Z,11.80
2018-07-22T00:56:22.876Z,12.70
2018-07-22T00:58:50.214Z,12.27
2018-07-22T01:01:17.535Z,12.97
2018-07-22T01:03:44.914Z,13.70
2018-07-22T01:06:12.298Z,14.90
2018-07-22T01:08:39.474Z,15.87
2018-07-22T01:11:06.789Z,16.00
2018-07-22T01:13:34.114Z,15.83
2018-07-22T01:16:01.460Z,14.73
2018-07-22T01:18:28.775Z,16.73
2018-07-22T01:20:56.116Z,16.03
2018-07-22T01:23:23.511Z,15.10
2018-07-22T01:25:50.855Z,17.10
2018-07-22T01:28:18.197Z,15.80
2018-07-22T01:30:45.634Z,16.30
2018-07-22T01:33:12.963Z,15.10
2018-07-22T01:35:40.305Z,14.20
2018-07-22T01:38:07.624Z,13.07
2018-07-22T01:40:34.956Z,13.40
2018-07-22T01:43:02.294Z,12.93
2018-07-22T01:45:29.624Z,13.97
2018-07-22T01:47:56.986Z,13.77
2018-07-22T01:50:24.410Z,14.03
2018-07-22T01:52:51.754Z,14.40
2018-07-22T01:55:19.084Z,14.93
2018-07-22T01:57:46.401Z,13.60
2018-07-22T02:00:13.771Z,12.73
2018-07-22T02:02:41.112Z,14.30
2018-07-22T02:05:08.467Z,14.33
2018-07-22T02:07:35.805Z,14.30
2018-07-22T02:10:03.147Z,14.10
2018-07-22T02:12:30.493Z,13.30
2018-07-22T02:14:57.861Z,12.73
2018-07-22T02:17:25.214Z,13.67
2018-07-22T02:19:52.663Z,13.43
2018-07-22T02:22:19.825Z,13.20
2018-07-22T02:24:47.163Z,13.60
2018-07-22T02:27:14.500Z,13.67
2018-07-22T02:29:41.828Z,13.90
2018-07-22T02:32:09.159Z,13.83
2018-07-22T02:34:36.503Z,12.90
2018-07-22T02:37:03.833Z,12.33
2018-07-22T02:39:31.168Z,13.10
2018-07-22T02:41:58.532Z,12.60
2018-07-22T02:44:25.907Z,12.70
2018-07-22T02:46:53.411Z,13.43
2018-07-22T02:49:20.752Z,12.30
2018-07-22T02:51:48.128Z,13.90
2018-07-22T02:54:15.471Z,12.83
2018-07-22T02:56:42.836Z,14.63
2018-07-22T02:59:10.170Z,15.50
2018-07-22T03:01:37.941Z,14.80
2018-07-22T03:04:06.048Z,14.20
2018-07-22T03:06:33.380Z,13.00
2018-07-22T03:09:00.736Z,14.07
2018-07-22T03:11:28.052Z,15.00
2018-07-22T03:13:55.406Z,12.83
2018-07-22T03:16:22.770Z,14.60
2018-07-22T03:18:50.135Z,15.10
2018-07-22T03:21:17.461Z,14.80
2018-07-22T03:23:44.795Z,13.17
2018-07-22T03:26:12.123Z,13.23
2018-07-22T03:28:39.474Z,14.30
2018-07-22T03:31:06.818Z,14.70
2018-07-22T03:33:34.155Z,14.23
2018-07-22T03:36:01.499Z,14.60
2018-07-22T03:38:28.827Z,14.47
2018-07-22T03:40:56.197Z,13.70
2018-07-22T03:43:23.587Z,12.63
2018-07-22T03:45:51.141Z,13.80
2018-07-22T03:48:18.496Z,13.60
2018-07-22T03:50:45.845Z,13.33
2018-07-22T03:53:13.153Z,13.03
2018-07-22T03:55:40.503Z,13.70
2018-07-22T03:58:07.833Z,13.10
2018-07-22T04:00:35.154Z,13.27
2018-07-22T04:03:02.468Z,13.00
2018-07-22T04:05:29.784Z,13.50
2018-07-22T04:07:57.107Z,12.93
2018-07-22T04:10:24.480Z,13.90
2018-07-22T04:12:51.898Z,13.03
2018-07-22T04:15:19.214Z,12.77
2018-07-22T04:17:46.520Z,13.50
2018-07-22T04:20:13.963Z,14.10
2018-07-22T04:22:41.320Z,13.60
2018-07-22T04:25:08.648Z,13.80
2018-07-22T04:27:36.000Z,13.13
2018-07-22T04:30:03.748Z,13.40
2018-07-22T04:32:31.083Z,15.50
2018-07-22T04:34:58.422Z,13.73
2018-07-22T04:37:25.793Z,14.80
2018-07-22T04:39:53.170Z,13.70
2018-07-22T04:42:20.502Z,14.00
2018-07-22T04:44:47.826Z,13.57
2018-07-22T04:47:15.155Z,13.27
2018-07-22T04:49:42.548Z,12.43
2018-07-22T04:52:09.856Z,12.70
2018-07-22T04:54:37.187Z,12.87
2018-07-22T04:57:04.550Z,14.23
2018-07-22T04:59:31.888Z,14.47
2018-07-22T05:01:59.209Z,13.80
2018-07-22T05:04:26.561Z,14.23
2018-07-22T05:06:53.908Z,12.30
2018-07-22T05:09:21.264Z,13.20
2018-07-22T05:11:48.580Z,12.33
2018-07-22T05:14:15.901Z,12.87
2018-07-22T05:16:43.235Z,13.77
2018-07-22T05:19:10.556Z,13.13
2018-07-22T05:21:37.882Z,13.90
2018-07-22T05:24:05.331Z,13.83
2018-07-22T05:26:32.660Z,14.33
2018-07-22T05:28:59.979Z,14.67
2018-07-22T05:31:27.343Z,15.07
2018-07-22T05:33:54.694Z,15.10
2018-07-22T05:36:22.039Z,15.53
2018-07-22T05:38:49.416Z,14.37
2018-07-22T05:41:16.746Z,15.17
2018-07-22T05:43:44.092Z,14.57
2018-07-22T05:46:11.468Z,14.20
2018-07-22T05:48:38.783Z,12.20
2018-07-22T05:51:06.145Z,16.80
2018-07-22T05:53:33.478Z,14.83
2018-07-22T05:56:00.801Z,14.67
2018-07-22T05:58:28.145Z,17.43
2018-07-22T06:00:55.510Z,14.30
2018-07-22T06:03:22.919Z,14.80
2018-07-22T06:05:50.275Z,14.27
2018-07-22T06:08:17.628Z,16.00
2018-07-22T06:10:44.969Z,15.63
2018-07-22T06:13:12.285Z,15.03
2018-07-22T06:15:39.676Z,15.17
2018-07-22T06:18:07.031Z,15.17
2018-07-22T06:20:34.359Z,14.23
2018-07-22T06:23:01.693Z,14.63
2018-07-22T06:25:29.050Z,11.03
2018-07-22T06:27:56.447Z,17.93
2018-07-22T06:30:23.884Z,16.70
2018-07-22T06:32:51.288Z,16.63
2018-07-22T06:35:18.723Z,15.70
2018-07-22T06:37:45.966Z,14.73
2018-07-22T06:40:13.324Z,18.97
2018-07-22T06:42:40.620Z,15.87
2018-07-22T06:45:08.006Z,21.13
2018-07-22T06:47:35.345Z,18.30
2018-07-22T06:50:02.683Z,15.33
2018-07-22T06:52:30.007Z,20.57
2018-07-22T06:54:57.379Z,18.63
2018-07-22T06:57:24.783Z,17.23
2018-07-22T06:59:52.208Z,17.30
2018-07-22T07:02:19.567Z,17.23
2018-07-22T07:04:46.891Z,16.33
2018-07-22T07:07:14.226Z,13.67
2018-07-22T07:09:41.584Z,17.07
2018-07-22T07:12:08.957Z,15.90
2018-07-22T07:14:36.282Z,17.40
2018-07-22T07:17:03.622Z,16.30
2018-07-22T07:19:30.934Z,15.40
2018-07-22T07:21:58.326Z,17.20
2018-07-22T07:24:25.728Z,17.33
2018-07-22T07:26:53.091Z,16.40
2018-07-22T07:29:20.433Z,17.03
2018-07-22T07:31:47.762Z,15.03
2018-07-22T07:34:15.214Z,17.07
2018-07-22T07:36:42.530Z,17.10
2018-07-22T07:39:09.860Z,15.93
2018-07-22T07:41:37.206Z,17.27
2018-07-22T07:44:04.533Z,16.03
2018-07-22T07:46:31.918Z,17.27
2018-07-22T07:48:59.267Z,14.97
2018-07-22T07:51:26.730Z,15.80
2018-07-22T07:53:54.092Z,17.10
2018-07-22T07:56:21.468Z,17.60
2018-07-22T07:58:48.676Z,17.57
2018-07-22T08:01:16.090Z,15.23
2018-07-22T08:03:43.445Z,17.67
2018-07-22T08:06:10.783Z,18.00
2018-07-22T08:08:38.140Z,18.23
2018-07-22T08:11:05.552Z,17.73
2018-07-22T08:13:32.872Z,17.20
2018-07-22T08:16:00.213Z,17.50
2018-07-22T08:18:27.529Z,16.20
2018-07-22T08:20:55.059Z,17.40
2018-07-22T08:23:22.506Z,17.13
2018-07-22T08:25:49.860Z,15.97
2018-07-22T08:28:27.441Z,15.70
2018-07-22T08:30:54.813Z,13.87
2018-07-22T08:33:22.194Z,14.80
2018-07-22T08:35:49.567Z,13.47
2018-07-22T08:38:16.927Z,15.97
2018-07-22T08:40:44.270Z,14.07
2018-07-22T08:43:11.628Z,14.70
2018-07-22T08:45:38.940Z,13.77
2018-07-22T08:48:07.217Z,16.73
2018-07-22T08:50:34.576Z,14.30
2018-07-22T08:53:01.911Z,14.03
2018-07-22T08:55:29.261Z,15.50
2018-07-22T08:57:56.621Z,13.97
2018-07-22T09:00:24.038Z,15.90
2018-07-22T09:02:52.045Z,16.13
2018-07-22T09:05:19.356Z,12.90
2018-07-22T09:07:46.738Z,16.53
2018-07-22T09:10:14.060Z,14.30
2018-07-22T09:12:41.380Z,15.13
2018-07-22T09:15:08.658Z,16.23
2018-07-22T09:17:36.016Z,16.10
2018-07-22T09:20:03.868Z,15.47
2018-07-22T09:22:31.200Z,14.83
2018-07-22T09:24:58.552Z,16.47
2018-07-22T09:27:26.049Z,12.97
2018-07-22T09:29:53.469Z,16.23
2018-07-22T09:32:20.794Z,14.33
2018-07-22T09:34:48.244Z,14.07
2018-07-22T09:37:15.648Z,14.00
2018-07-22T09:39:42.998Z,12.50
2018-07-22T09:42:10.401Z,14.97
2018-07-22T09:44:37.831Z,12.80
2018-07-22T09:47:05.428Z,15.23
2018-07-22T09:49:32.795Z,15.10
2018-07-22T09:52:00.125Z,14.70
2018-07-22T09:54:27.454Z,13.50
2018-07-22T09:56:54.884Z,16.07
2018-07-22T09:59:22.343Z,13.97
2018-07-22T10:01:49.705Z,16.80
2018-07-22T10:04:17.037Z,14.17
2018-07-22T10:06:44.356Z,13.07
2018-07-22T10:09:11.711Z,14.37
2018-07-22T10:11:39.067Z,17.57
2018-07-22T10:14:06.471Z,18.93
2018-07-22T10:16:33.878Z,16.00
2018-07-22T10:19:01.213Z,15.40
2018-07-22T10:21:28.561Z,18.47
2018-07-22T10:23:55.920Z,14.37
2018-07-22T10:26:23.132Z,13.40
2018-07-22T10:28:50.534Z,15.07
2018-07-22T10:31:17.892Z,15.50
2018-07-22T10:33:45.239Z,18.70
2018-07-22T10:36:12.599Z,17.50
2018-07-22T10:38:39.957Z,17.00
2018-07-22T10:41:07.276Z,18.33
2018-07-22T10:43:34.623Z,16.40
2018-07-22T10:46:01.965Z,16.30
2018-07-22T10:48:29.315Z,14.70
2018-07-22T10:50:56.686Z,16.10
2018-07-22T10:53:24.093Z,15.30
2018-07-22T10:55:51.431Z,20.27
2018-07-22T10:58:18.788Z,16.00
2018-07-22T11:00:46.140Z,14.10
2018-07-22T11:03:13.607Z,14.50
2018-07-22T11:05:40.894Z,16.50
2018-07-22T11:08:08.228Z,14.87
2018-07-22T11:10:35.710Z,16.80
2018-07-22T11:13:03.012Z,17.20
2018-07-22T11:15:30.343Z,16.10
2018-07-22T11:17:57.680Z,14.63
2018-07-22T11:20:25.048Z,14.00
2018-07-22T11:22:52.417Z,14.30
2018-07-22T11:25:19.751Z,14.50
2018-07-22T11:27:47.095Z,16.23
2018-07-22T11:30:14.438Z,14.30
2018-07-22T11:32:41.798Z,13.30
2018-07-22T11:35:09.168Z,14.87
2018-07-22T11:37:36.503Z,16.67
2018-07-22T11:40:04.188Z,16.57
2018-07-22T11:42:31.482Z,16.10
2018-07-22T11:44:58.907Z,15.50
2018-07-22T11:47:26.320Z,14.17
2018-07-22T11:49:53.746Z,14.43
2018-07-22T11:52:21.119Z,14.43
2018-07-22T11:54:48.499Z,14.50
2018-07-22T11:57:15.883Z,14.40
2018-07-22T11:59:43.241Z,14.97
2018-07-22T12:02:10.622Z,15.40
2018-07-22T12:04:37.947Z,13.40
2018-07-22T12:07:05.281Z,14.50
2018-07-22T12:09:32.633Z,13.00
2018-07-22T12:11:59.966Z,14.10
2018-07-22T12:14:27.354Z,11.83
2018-07-22T12:16:54.714Z,13.33
2018-07-22T12:19:22.155Z,12.30
2018-07-22T12:21:49.509Z,12.43
2018-07-22T12:24:16.913Z,11.03
2018-07-22T12:26:44.298Z,14.40
2018-07-22T12:29:11.669Z,11.80
2018-07-22T12:31:39.032Z,12.70
2018-07-22T12:34:06.451Z,13.70
2018-07-22T12:36:33.820Z,12.80
2018-07-22T12:39:01.172Z,11.80
2018-07-22T12:41:28.530Z,12.83
2018-07-22T12:43:55.887Z,12.93
2018-07-22T12:46:23.368Z,13.63
2018-07-22T12:48:50.718Z,12.97
2018-07-22T12:51:18.083Z,14.17
2018-07-22T12:53:45.499Z,15.17
2018-07-22T12:56:12.784Z,16.80
2018-07-22T12:58:40.139Z,19.10
2018-07-22T13:01:07.500Z,22.00
2018-07-22T13:03:34.835Z,24.30
2018-07-22T13:06:02.151Z,22.30
2018-07-22T13:08:29.496Z,20.00
2018-07-22T13:10:56.928Z,14.97
2018-07-22T13:13:24.651Z,17.13
2018-07-22T13:15:51.959Z,19.87
2018-07-22T13:18:19.305Z,18.37
2018-07-22T13:20:46.649Z,22.10
2018-07-22T13:23:13.982Z,23.13
2018-07-22T13:25:41.320Z,23.33
2018-07-22T13:28:08.651Z,26.33
2018-07-22T13:30:36.297Z,18.50
2018-07-22T13:33:03.695Z,22.63
2018-07-22T13:35:31.036Z,18.27
2018-07-22T13:37:58.401Z,15.40
2018-07-22T13:40:25.721Z,15.47
2018-07-22T13:42:53.692Z,15.20
2018-07-22T13:45:21.141Z,17.50
2018-07-22T13:47:48.336Z,19.27
2018-07-22T13:50:15.720Z,19.90
2018-07-22T13:52:43.033Z,17.93
2018-07-22T13:55:10.396Z,21.60
2018-07-22T13:57:37.741Z,21.67
2018-07-22T14:00:05.239Z,24.00
2018-07-22T14:02:32.641Z,22.47
2018-07-22T14:04:59.951Z,24.63
2018-07-22T14:07:27.324Z,27.97
2018-07-22T14:09:54.663Z,31.93
2018-07-22T14:12:22.059Z,19.20
2018-07-22T14:14:49.359Z,16.03
2018-07-22T14:17:16.735Z,16.27
2018-07-22T14:19:44.061Z,16.90
2018-07-22T14:22:11.416Z,17.20
2018-07-22T14:24:38.733Z,17.43
2018-07-22T14:27:06.095Z,20.57
2018-07-22T14:29:33.419Z,23.57
2018-07-22T14:32:00.759Z,29.20
2018-07-22T14:34:28.191Z,40.23
2018-07-22T14:36:55.549Z,37.83
2018-07-22T14:39:22.796Z,42.00
2018-07-22T14:41:50.120Z,43.23
2018-07-22T14:44:17.461Z,44.87
2018-07-22T14:46:44.819Z,45.50
2018-07-22T14:49:12.192Z,43.57
2018-07-22T14:51:39.507Z,47.33
2018-07-22T14:54:06.857Z,54.07
2018-07-22T14:56:34.229Z,54.97
2018-07-22T14:59:01.540Z,46.57
2018-07-22T15:01:28.968Z,44.67
2018-07-22T15:03:56.352Z,51.37
2018-07-22T15:06:23.749Z,59.00
2018-07-22T15:08:51.084Z,52.40
2018-07-22T15:11:18.420Z,56.33
2018-07-22T15:13:45.873Z,54.33
2018-07-22T15:16:13.199Z,72.70
2018-07-22T15:18:40.555Z,59.50
2018-07-22T15:21:07.851Z,48.60
2018-07-22T15:23:35.191Z,44.97
2018-07-22T15:26:02.533Z,48.97
2018-07-22T15:28:29.878Z,48.07
2018-07-22T15:30:57.255Z,50.00
2018-07-22T15:33:24.666Z,48.17
2018-07-22T15:35:52.018Z,48.17
2018-07-22T15:38:19.356Z,45.10
2018-07-22T15:40:46.681Z,46.37
2018-07-22T15:43:14.079Z,46.00
2018-07-22T15:45:41.415Z,47.77
2018-07-22T15:48:09.181Z,45.43
2018-07-22T15:50:36.573Z,45.50
2018-07-22T15:53:03.979Z,45.40
2018-07-22T15:55:31.475Z,44.83
2018-07-22T15:57:58.676Z,48.03
2018-07-22T16:00:26.046Z,44.13
2018-07-22T16:02:53.388Z,44.00
2018-07-22T16:05:20.751Z,44.67
2018-07-22T16:07:48.129Z,40.73
2018-07-22T16:10:15.468Z,40.93
2018-07-22T16:12:42.814Z,46.53
2018-07-22T16:15:10.170Z,40.77
2018-07-22T16:17:37.512Z,38.40
2018-07-22T16:20:04.835Z,41.63
2018-07-22T16:22:32.184Z,40.87
2018-07-22T16:24:59.508Z,40.10
2018-07-22T16:27:26.975Z,35.13
2018-07-22T16:29:54.429Z,36.70
2018-07-22T16:32:21.792Z,34.30
2018-07-22T16:34:49.122Z,33.97
2018-07-22T16:37:16.529Z,31.37
2018-07-22T16:39:43.791Z,34.10
2018-07-22T16:42:11.106Z,34.53
2018-07-22T16:44:38.499Z,35.23
2018-07-22T16:47:05.838Z,34.07
2018-07-22T16:49:33.330Z,28.70
2018-07-22T16:52:00.674Z,30.97
2018-07-22T16:54:28.115Z,28.87
2018-07-22T16:56:55.299Z,27.57
2018-07-22T16:59:22.655Z,29.10
2018-07-22T17:01:49.984Z,28.37
2018-07-22T17:04:17.316Z,26.60
2018-07-22T17:06:44.669Z,24.90
2018-07-22T17:09:12.031Z,27.30
2018-07-22T17:11:39.450Z,26.17
2018-07-22T17:14:06.792Z,26.70
2018-07-22T17:16:34.117Z,23.27
2018-07-22T17:19:01.775Z,23.70
2018-07-22T17:21:29.148Z,20.87
2018-07-22T17:23:56.534Z,19.93
2018-07-22T17:26:23.904Z,23.50
2018-07-22T17:28:51.225Z,22.93
2018-07-22T17:31:18.576Z,26.93
2018-07-22T17:33:45.933Z,20.77
2018-07-22T17:36:13.286Z,22.17
2018-07-22T17:38:40.636Z,23.70
2018-07-22T17:41:07.972Z,21.57
2018-07-22T17:43:35.310Z,23.10
2018-07-22T17:46:02.635Z,20.93
2018-07-22T17:48:30.031Z,22.03
2018-07-22T17:50:57.470Z,21.80
2018-07-22T17:53:24.884Z,20.70
2018-07-22T17:55:52.546Z,21.80
2018-07-22T17:58:19.884Z,20.57
2018-07-22T18:00:47.233Z,20.57
2018-07-22T18:03:19.295Z,19.83
2018-07-22T18:05:46.657Z,22.80
2018-07-22T18:08:14.035Z,22.00
2018-07-22T18:10:41.364Z,20.20
2018-07-22T18:13:08.695Z,18.93
2018-07-22T18:15:36.019Z,18.67
2018-07-22T18:18:03.460Z,18.83
2018-07-22T18:20:30.816Z,19.17
2018-07-22T18:22:58.204Z,19.90
2018-07-22T18:25:25.524Z,22.67
2018-07-22T18:27:53.753Z,18.13
2018-07-22T18:30:21.147Z,17.00
2018-07-22T18:32:48.652Z,18.10
2018-07-22T18:35:16.062Z,16.07
2018-07-22T18:37:43.416Z,15.57
2018-07-22T18:40:10.828Z,15.73
2018-07-22T18:42:38.824Z,18.67
2018-07-22T18:45:06.162Z,15.53
2018-07-22T18:47:33.495Z,17.97
2018-07-22T18:50:00.827Z,16.00
2018-07-22T18:52:28.150Z,14.43
2018-07-22T18:54:55.789Z,14.70
2018-07-22T18:57:23.237Z,14.23
2018-07-22T18:59:50.647Z,15.73
2018-07-22T19:02:18.268Z,16.63
2018-07-22T19:04:45.611Z,16.20
2018-07-22T19:07:12.950Z,16.17
2018-07-22T19:09:40.301Z,15.80
2018-07-22T19:12:07.640Z,20.20
2018-07-22T19:14:34.974Z,20.10
2018-07-22T19:17:02.274Z,18.03
2018-07-22T19:19:29.699Z,18.50
2018-07-22T19:21:57.014Z,17.60
2018-07-22T19:24:24.478Z,20.53
2018-07-22T19:26:51.848Z,21.37
2018-07-22T19:29:19.250Z,22.33
2018-07-22T19:31:46.575Z,22.67
2018-07-22T19:34:13.892Z,20.80
2018-07-22T19:36:41.247Z,22.57
2018-07-22T19:39:08.580Z,21.67
2018-07-22T19:41:35.913Z,19.23
2018-07-22T19:44:03.244Z,20.60
2018-07-22T19:46:30.633Z,23.40
2018-07-22T19:48:58.002Z,23.33
2018-07-22T19:51:25.436Z,20.83
2018-07-22T19:53:52.827Z,21.83
2018-07-22T19:56:20.243Z,23.37
2018-07-22T19:58:47.626Z,22.20
2018-07-22T20:01:14.970Z,23.10
2018-07-22T20:03:42.295Z,25.57
2018-07-22T20:06:09.628Z,25.43
2018-07-22T20:08:36.989Z,24.80
2018-07-22T20:11:04.318Z,26.03
2018-07-22T20:13:31.658Z,23.53
2018-07-22T20:15:59.020Z,25.07
2018-07-22T20:18:26.427Z,28.43
2018-07-22T20:20:53.926Z,24.40
2018-07-22T20:23:21.231Z,29.43
2018-07-22T20:25:48.602Z,25.50
2018-07-22T20:28:15.914Z,25.77
2018-07-22T20:30:43.240Z,26.87
2018-07-22T20:33:10.566Z,25.70
2018-07-22T20:35:37.880Z,26.37
2018-07-22T20:38:05.609Z,28.47
2018-07-22T20:40:32.930Z,28.13
2018-07-22T20:43:00.267Z,27.83
2018-07-22T20:45:27.628Z,28.33
2018-07-22T20:47:55.017Z,28.13
2018-07-22T20:50:22.393Z,30.80
2018-07-22T20:52:49.743Z,26.77
2018-07-22T20:55:17.046Z,28.07
2018-07-22T20:57:44.390Z,26.43
2018-07-22T21:00:11.697Z,31.70
2018-07-22T21:02:39.036Z,28.40
2018-07-22T21:05:06.410Z,26.17
2018-07-22T21:07:33.734Z,26.00
2018-07-22T21:10:01.064Z,20.83
2018-07-22T21:12:40.579Z,21.20
2018-07-22T21:15:07.990Z,23.47
2018-07-22T21:17:35.259Z,22.20
2018-07-22T21:20:02.593Z,25.30
2018-07-22T21:22:29.927Z,25.83
2018-07-22T21:24:57.302Z,24.00
2018-07-22T21:27:24.666Z,22.63
2018-07-22T21:29:51.984Z,25.63
2018-07-22T21:32:19.304Z,20.00
2018-07-22T21:34:46.752Z,23.40
2018-07-22T21:37:14.140Z,24.60
2018-07-22T21:39:41.461Z,23.07
2018-07-22T21:42:08.908Z,24.67
2018-07-22T21:44:36.240Z,24.03
2018-07-22T21:47:03.587Z,25.40
2018-07-22T21:49:30.970Z,25.33
2018-07-22T21:51:58.150Z,26.27
2018-07-22T21:54:25.564Z,24.57
2018-07-22T21:56:52.915Z,25.47
2018-07-22T21:59:20.383Z,23.67
2018-07-22T22:01:47.735Z,27.50
2018-07-22T22:04:15.044Z,24.90
2018-07-22T22:06:42.468Z,20.50
2018-07-22T22:09:09.775Z,24.23
2018-07-22T22:11:37.124Z,23.40
2018-07-22T22:14:04.432Z,26.63
2018-07-22T22:16:31.741Z,25.57
2018-07-22T22:18:59.144Z,23.03
2018-07-22T22:21:26.559Z,23.37
2018-07-22T22:23:53.988Z,21.77
2018-07-22T22:26:21.281Z,23.07
2018-07-22T22:28:48.673Z,22.97
2018-07-22T22:31:16.109Z,23.97
2018-07-22T22:33:43.448Z,24.70
2018-07-22T22:36:10.766Z,24.10
2018-07-22T22:38:38.097Z,24.23
2018-07-22T22:41:05.552Z,25.33
2018-07-22T22:43:32.796Z,23.63
2018-07-22T22:46:00.113Z,25.30
2018-07-22T22:48:27.488Z,24.70
2018-07-22T22:50:54.884Z,24.10
2018-07-22T22:53:22.241Z,25.07
2018-07-22T22:55:49.609Z,22.80
2018-07-22T22:58:28.352Z,23.00
2018-07-22T23:00:55.708Z,24.80
2018-07-22T23:03:23.057Z,22.70
2018-07-22T23:05:50.379Z,24.13
2018-07-22T23:08:17.765Z,22.73
2018-07-22T23:10:45.051Z,25.33
2018-07-22T23:13:12.441Z,25.20
2018-07-22T23:15:39.743Z,24.63
2018-07-22T23:18:07.083Z,30.33
2018-07-22T23:20:34.411Z,31.80
2018-07-22T23:23:01.733Z,27.77
2018-07-22T23:25:29.070Z,31.20
2018-07-22T23:27:56.431Z,29.23
2018-07-22T23:30:23.795Z,29.73
2018-07-22T23:32:51.090Z,28.40
2018-07-22T23:35:18.452Z,25.57
2018-07-22T23:37:45.767Z,28.23
2018-07-22T23:40:13.087Z,27.67
2018-07-22T23:42:40.415Z,25.10
2018-07-22T23:45:07.747Z,23.03
2018-07-22T23:47:35.066Z,25.20
2018-07-22T23:50:02.411Z,23.40
2018-07-22T23:52:29.780Z,23.13
2018-07-22T23:54:57.122Z,24.40
2018-07-22T23:57:24.507Z,25.10
2018-07-22T23:59:51.843Z,25.83
